createdAt,value
2022-11-12T00:01:00.744Z,8.02
2022-11-12T00:03:27.348Z,8.06
2022-11-12T00:05:54.234Z,8.11
2022-11-12T00:08:20.964Z,8.12
2022-11-12T00:10:47.701Z,8.16
2022-11-12T00:13:14.766Z,8.12
2022-11-12T00:15:41.882Z,8.20
2022-11-12T00:18:08.723Z,8.21
2022-11-12T00:20:35.733Z,8.22
2022-11-12T00:23:02.296Z,8.24
2022-11-12T00:25:29.083Z,8.20
2022-11-12T00:28:04.987Z,8.20
2022-11-12T00:30:31.726Z,8.25
2022-11-12T00:33:41.756Z,8.18
2022-11-12T00:36:36.733Z,8.26
2022-11-12T00:39:04.177Z,8.16
2022-11-12T00:41:30.611Z,8.18
2022-11-12T00:43:57.115Z,8.20
2022-11-12T00:46:23.725Z,8.19
2022-11-12T00:48:50.176Z,8.28
2022-11-12T00:51:16.742Z,8.36
2022-11-12T00:53:43.184Z,8.35
2022-11-12T00:56:09.979Z,8.33
2022-11-12T00:58:36.614Z,8.36
2022-11-12T01:01:12.851Z,8.43
2022-11-12T01:03:40.908Z,8.35
2022-11-12T01:06:10.745Z,8.28
2022-11-12T01:08:37.381Z,8.25
2022-11-12T01:11:14.153Z,8.23
2022-11-12T01:13:44.433Z,8.25
2022-11-12T01:16:19.992Z,8.23
2022-11-12T01:18:47.595Z,8.21
2022-11-12T01:21:14.710Z,8.10
2022-11-12T01:23:43.232Z,8.20
2022-11-12T01:26:12.690Z,8.20
2022-11-12T01:29:00.913Z,8.29
2022-11-12T01:32:17.045Z,8.40
2022-11-12T01:35:20.709Z,8.40
2022-11-12T01:37:47.151Z,8.36
2022-11-12T01:40:14.607Z,8.41
2022-11-12T01:42:41.131Z,8.24
2022-11-12T01:45:17.821Z,8.20
2022-11-12T01:48:46.863Z,8.26
2022-11-12T02:03:23.969Z,8.52
2022-11-12T02:06:21.570Z,8.53
2022-11-12T02:08:51.604Z,8.38
2022-11-12T02:14:47.793Z,8.44
2022-11-12T02:17:14.252Z,8.49
2022-11-12T02:19:40.660Z,8.56
2022-11-12T02:22:07.041Z,8.64
2022-11-12T02:24:34.960Z,8.68
2022-11-12T02:27:01.739Z,8.70
2022-11-12T02:29:28.222Z,8.73
2022-11-12T02:31:54.721Z,8.75
2022-11-12T02:34:21.159Z,8.78
2022-11-12T02:36:47.580Z,8.77
2022-11-12T02:39:14.064Z,8.70
2022-11-12T02:41:40.491Z,8.65
2022-11-12T02:44:06.927Z,8.60
2022-11-12T02:46:33.357Z,8.66
2022-11-12T02:48:59.787Z,8.53
2022-11-12T02:51:26.225Z,8.51
2022-11-12T02:53:52.658Z,8.48
2022-11-12T02:56:19.112Z,8.46
2022-11-12T02:58:45.566Z,8.54
2022-11-12T03:01:11.999Z,8.63
2022-11-12T03:03:38.472Z,8.63
2022-11-12T03:06:05.243Z,8.61
2022-11-12T03:08:31.662Z,8.67
2022-11-12T03:10:58.146Z,8.67
2022-11-12T03:13:24.574Z,8.51
2022-11-12T03:15:59.266Z,8.38
2022-11-12T03:18:26.024Z,8.33
2022-11-12T03:20:52.634Z,8.43
2022-11-12T03:23:19.093Z,8.42
2022-11-12T03:25:45.593Z,8.43
2022-11-12T03:28:14.051Z,8.54
2022-11-12T03:30:42.755Z,8.60
2022-11-12T03:33:11.746Z,8.65
2022-11-12T03:35:39.106Z,8.65
2022-11-12T03:38:06.374Z,8.69
2022-11-12T03:40:33.568Z,8.67
2022-11-12T03:43:00.008Z,8.64
2022-11-12T03:45:28.085Z,8.62
2022-11-12T03:47:56.853Z,8.64
2022-11-12T03:50:27.389Z,8.67
2022-11-12T03:52:56.563Z,8.65
2022-11-12T03:55:25.608Z,8.63
2022-11-12T03:57:53.560Z,8.59
2022-11-12T04:00:21.587Z,8.62
2022-11-12T04:02:48.644Z,8.57
2022-11-12T04:05:33.677Z,8.63
2022-11-12T04:08:20.976Z,8.63
2022-11-12T04:10:47.784Z,8.63
2022-11-12T04:13:29.698Z,8.59
2022-11-12T04:20:30.356Z,8.59
2022-11-12T04:23:27.672Z,8.67
2022-11-12T04:26:12.766Z,8.73
2022-11-12T04:29:37.491Z,8.84
2022-11-12T04:32:04.310Z,8.85
2022-11-12T04:34:30.816Z,8.89
2022-11-12T04:37:25.826Z,8.90
2022-11-12T04:39:52.703Z,8.92
2022-11-12T04:42:37.747Z,8.98
2022-11-12T04:45:08.758Z,8.99
2022-11-12T04:47:38.145Z,8.94
2022-11-12T04:50:09.243Z,8.92
2022-11-12T04:52:35.674Z,8.86
2022-11-12T04:55:02.145Z,8.85
2022-11-12T04:57:28.649Z,8.90
2022-11-12T04:59:55.112Z,8.90
2022-11-12T05:03:17.396Z,8.87
2022-11-12T05:05:43.856Z,8.87
2022-11-12T05:08:10.293Z,8.82
2022-11-12T05:10:36.728Z,8.86
2022-11-12T05:13:03.165Z,8.84
2022-11-12T05:15:29.896Z,8.83
2022-11-12T05:17:56.550Z,8.93
2022-11-12T05:20:22.950Z,8.95
2022-11-12T05:23:04.976Z,8.84
2022-11-12T05:25:35.844Z,8.73
2022-11-12T05:28:24.350Z,8.68
2022-11-12T05:30:50.982Z,8.74
2022-11-12T05:33:17.605Z,8.78
2022-11-12T05:35:44.009Z,8.77
2022-11-12T05:38:10.409Z,8.71
2022-11-12T05:40:36.814Z,8.76
2022-11-12T05:43:03.212Z,8.68
2022-11-12T05:45:29.624Z,8.67
2022-11-12T05:47:56.095Z,8.65
2022-11-12T05:50:22.520Z,8.66
2022-11-12T05:52:48.931Z,8.71
2022-11-12T05:55:15.503Z,8.69
2022-11-12T05:57:41.941Z,8.70
2022-11-12T06:00:09.227Z,8.67
2022-11-12T06:02:35.705Z,8.62
2022-11-12T06:05:02.223Z,8.68
2022-11-12T06:07:28.626Z,8.67
2022-11-12T06:09:55.008Z,8.64
2022-11-12T06:12:21.463Z,8.58
2022-11-12T06:14:47.880Z,8.57
2022-11-12T06:17:14.297Z,8.54
2022-11-12T06:19:40.705Z,8.53
2022-11-12T06:22:07.165Z,8.45
2022-11-12T06:24:35.295Z,8.45
2022-11-12T06:27:02.258Z,8.49
2022-11-12T06:29:30.088Z,8.50
2022-11-12T06:31:56.694Z,8.52
2022-11-12T06:34:23.509Z,8.62
2022-11-12T06:36:49.978Z,8.59
2022-11-12T06:39:16.537Z,8.56
2022-11-12T06:41:43.027Z,8.64
2022-11-12T06:44:19.236Z,8.62
2022-11-12T06:46:48.791Z,8.62
2022-11-12T06:49:18.032Z,8.64
2022-11-12T06:51:44.590Z,8.66
2022-11-12T06:54:11.041Z,8.62
2022-11-12T06:56:37.517Z,8.63
2022-11-12T06:59:05.061Z,8.69
2022-11-12T07:01:32.012Z,8.70
2022-11-12T07:03:58.786Z,8.67
2022-11-12T07:06:25.559Z,8.65
2022-11-12T07:08:52.029Z,8.66
2022-11-12T07:11:19.658Z,8.64
2022-11-12T07:13:47.329Z,8.60
2022-11-12T07:16:21.002Z,8.62
2022-11-12T07:18:48.335Z,8.62
2022-11-12T07:21:17.483Z,8.70
2022-11-12T07:23:44.542Z,8.71
2022-11-12T07:26:22.057Z,8.76
2022-11-12T07:28:50.280Z,8.74
2022-11-12T07:31:20.981Z,8.73
2022-11-12T07:33:50.606Z,8.78
2022-11-12T07:36:19.585Z,8.79
2022-11-12T07:38:46.790Z,8.76
2022-11-12T07:41:18.756Z,8.74
2022-11-12T07:43:50.063Z,8.77
2022-11-12T07:46:18.477Z,8.82
2022-11-12T07:48:46.194Z,8.89
2022-11-12T07:51:16.825Z,8.89
2022-11-12T07:53:47.608Z,8.92
2022-11-12T07:56:17.083Z,8.93
2022-11-12T07:58:47.581Z,8.95
2022-11-12T08:01:39.080Z,8.95
2022-11-12T08:04:12.024Z,8.95
2022-11-12T08:06:47.250Z,8.98
2022-11-12T08:09:13.971Z,9.02
2022-11-12T08:11:42.037Z,9.10
2022-11-12T08:14:08.750Z,9.14
2022-11-12T08:16:35.312Z,9.11
2022-11-12T08:19:02.121Z,9.12
2022-11-12T08:21:29.180Z,9.17
2022-11-12T08:23:55.863Z,9.20
2022-11-12T08:26:25.306Z,9.21
2022-11-12T08:29:06.992Z,9.22
2022-11-12T08:31:34.964Z,9.33
2022-11-12T08:34:12.067Z,9.37
2022-11-12T08:36:39.265Z,9.40
2022-11-12T08:39:07.519Z,9.40
2022-11-12T08:41:34.217Z,9.49
2022-11-12T08:44:08.548Z,9.56
2022-11-12T08:46:35.588Z,9.63
2022-11-12T08:49:05.505Z,9.66
2022-11-12T08:51:31.985Z,9.74
2022-11-12T08:53:58.688Z,9.82
2022-11-12T08:56:25.156Z,9.86
2022-11-12T08:58:54.421Z,9.86
2022-11-12T09:01:23.631Z,9.90
2022-11-12T09:03:50.267Z,9.88
2022-11-12T09:06:17.069Z,9.87
2022-11-12T09:08:43.525Z,9.87
2022-11-12T09:11:13.760Z,9.97
2022-11-12T09:13:40.377Z,10.05
2022-11-12T09:16:09.037Z,10.13
2022-11-12T09:19:31.218Z,10.19
2022-11-12T09:21:59.767Z,10.19
2022-11-12T09:24:26.244Z,10.18
2022-11-12T09:26:53.930Z,10.24
2022-11-12T09:29:29.512Z,10.29
2022-11-12T09:31:56.075Z,10.37
2022-11-12T09:34:22.950Z,10.39
2022-11-12T09:36:49.575Z,10.42
2022-11-12T09:39:16.042Z,10.48
2022-11-12T09:41:43.243Z,10.48
2022-11-12T09:44:18.471Z,10.51
2022-11-12T09:46:49.331Z,10.52
2022-11-12T09:49:19.024Z,10.50
2022-11-12T09:51:53.731Z,10.48
2022-11-12T09:54:30.778Z,10.51
2022-11-12T09:56:57.603Z,10.56
2022-11-12T09:59:36.951Z,10.56
2022-11-12T10:02:19.711Z,10.64
2022-11-12T10:05:14.134Z,10.70
2022-11-12T10:08:07.322Z,10.77
2022-11-12T10:11:11.882Z,10.86
2022-11-12T10:14:02.363Z,10.93
2022-11-12T10:16:49.460Z,10.93
2022-11-12T10:19:24.821Z,10.94
2022-11-12T10:22:00.598Z,10.96
2022-11-12T10:24:34.363Z,10.93
2022-11-12T10:27:03.148Z,10.99
2022-11-12T10:29:42.539Z,11.03
2022-11-12T10:32:15.188Z,10.98
2022-11-12T10:34:41.745Z,10.98
2022-11-12T10:37:16.548Z,10.96
2022-11-12T10:39:47.565Z,10.97
2022-11-12T10:42:16.722Z,10.98
2022-11-12T10:44:44.520Z,11.03
2022-11-12T10:47:46.536Z,11.14
2022-11-12T10:50:37.392Z,11.17
2022-11-12T10:53:07.040Z,11.15
2022-11-12T10:55:36.876Z,11.18
2022-11-12T10:58:09.328Z,11.23
2022-11-12T11:00:37.343Z,11.33
2022-11-12T11:03:16.501Z,11.40
2022-11-12T11:05:56.423Z,11.43
2022-11-12T11:08:35.989Z,11.44
2022-11-12T11:11:21.851Z,11.43
2022-11-12T11:13:55.375Z,11.47
2022-11-12T11:16:27.639Z,11.49
2022-11-12T11:18:58.886Z,11.52
2022-11-12T11:21:44.851Z,11.61
2022-11-12T11:24:30.285Z,11.69
2022-11-12T11:27:30.963Z,11.70
2022-11-12T11:30:15.709Z,11.68
2022-11-12T11:33:15.610Z,11.69
2022-11-12T11:36:18.077Z,11.72
2022-11-12T11:38:56.402Z,11.78
2022-11-12T11:41:47.880Z,11.86
2022-11-12T11:44:14.354Z,11.90
2022-11-12T11:46:57.636Z,11.95
2022-11-12T11:50:05.063Z,12.05
2022-11-12T11:52:44.422Z,12.15
2022-11-12T11:55:49.876Z,12.22
2022-11-12T11:58:37.357Z,12.27
2022-11-12T12:01:36.405Z,12.35
2022-11-12T12:04:31.863Z,12.40
2022-11-12T12:07:37.438Z,12.44
2022-11-12T12:10:22.873Z,12.45
2022-11-12T12:13:09.619Z,12.48
2022-11-12T12:15:45.788Z,12.48
2022-11-12T12:18:36.312Z,12.53
2022-11-12T12:21:09.516Z,12.54
2022-11-12T12:23:52.146Z,12.55
2022-11-12T12:26:35.680Z,12.62
2022-11-12T12:29:17.932Z,12.66
2022-11-12T12:32:23.092Z,12.69
2022-11-12T12:35:18.347Z,12.72
2022-11-12T12:38:11.306Z,12.72
2022-11-12T12:40:44.760Z,12.79
2022-11-12T12:43:16.898Z,12.82
2022-11-12T12:45:46.290Z,12.84
2022-11-12T12:48:21.490Z,12.85
2022-11-12T12:50:50.242Z,12.88
2022-11-12T12:53:28.972Z,12.90
2022-11-12T12:56:06.901Z,12.90
2022-11-12T12:58:45.990Z,12.91
2022-11-12T13:01:21.508Z,12.92
2022-11-12T13:04:05.120Z,12.87
2022-11-12T13:06:35.282Z,12.83
2022-11-12T13:09:07.342Z,12.84
2022-11-12T13:12:01.331Z,12.82
2022-11-12T13:14:36.738Z,12.81
2022-11-12T13:17:12.632Z,12.84
2022-11-12T13:20:08.348Z,12.83
2022-11-12T13:22:50.539Z,12.82
2022-11-12T13:25:16.926Z,12.85
2022-11-12T13:27:43.293Z,12.86
2022-11-12T13:30:20.578Z,12.83
2022-11-12T13:32:46.980Z,12.84
2022-11-12T13:35:22.277Z,12.87
2022-11-12T13:38:07.551Z,12.86
2022-11-12T13:40:45.098Z,12.86
2022-11-12T13:43:17.589Z,12.86
2022-11-12T13:46:16.854Z,12.88
2022-11-12T13:48:52.558Z,12.89
2022-11-12T13:51:33.889Z,12.86
2022-11-12T13:54:00.892Z,12.88
2022-11-12T13:56:32.830Z,12.88
2022-11-12T13:59:16.011Z,12.85
2022-11-12T14:01:43.211Z,12.80
2022-11-12T14:04:18.991Z,12.79
2022-11-12T14:07:17.422Z,12.76
2022-11-12T14:10:29.763Z,12.73
2022-11-12T14:13:20.897Z,12.72
2022-11-12T14:15:59.379Z,12.68
2022-11-12T14:18:32.035Z,12.70
2022-11-12T14:21:04.542Z,12.71
2022-11-12T14:23:31.092Z,12.71
2022-11-12T14:25:57.561Z,12.71
2022-11-12T14:28:35.238Z,12.66
2022-11-12T14:31:02.716Z,12.61
2022-11-12T14:33:31.680Z,12.57
2022-11-12T14:36:07.670Z,12.57
2022-11-12T14:38:39.875Z,12.55
2022-11-12T14:41:15.877Z,12.54
2022-11-12T14:43:48.093Z,12.52
2022-11-12T14:46:38.912Z,12.53
2022-11-12T14:49:16.959Z,12.53
2022-11-12T14:52:09.483Z,12.50
2022-11-12T14:54:42.641Z,12.48
2022-11-12T14:57:18.318Z,12.47
2022-11-12T14:59:44.979Z,12.48
2022-11-12T15:05:11.457Z,12.45
2022-11-12T15:07:59.854Z,12.43
2022-11-12T15:10:40.235Z,12.42
2022-11-12T15:13:15.648Z,12.40
2022-11-12T15:15:53.289Z,12.33
2022-11-12T15:18:29.532Z,12.28
2022-11-12T15:21:19.667Z,12.25
2022-11-12T15:23:51.845Z,12.22
2022-11-12T15:26:39.697Z,12.19
2022-11-12T15:29:19.031Z,12.18
2022-11-12T15:31:51.157Z,12.15
2022-11-12T15:34:30.788Z,12.12
2022-11-12T15:37:00.467Z,12.11
2022-11-12T15:39:28.794Z,12.07
2022-11-12T15:42:04.328Z,12.07
2022-11-12T15:44:34.936Z,12.02
2022-11-12T15:47:03.058Z,12.01
2022-11-12T15:49:29.636Z,11.96
2022-11-12T15:51:56.144Z,11.95
2022-11-12T15:54:22.564Z,11.93
2022-11-12T15:56:49.819Z,11.89
2022-11-12T15:59:17.848Z,11.87
2022-11-12T16:01:44.791Z,11.86
2022-11-12T16:04:12.759Z,11.86
2022-11-12T16:06:39.289Z,11.79
2022-11-12T16:09:05.802Z,11.71
2022-11-12T16:11:38.253Z,11.65
2022-11-12T16:14:07.674Z,11.60
2022-11-12T16:16:34.894Z,11.61
2022-11-12T16:19:01.626Z,11.62
2022-11-12T16:21:28.111Z,11.64
2022-11-12T16:23:54.681Z,11.61
2022-11-12T16:26:28.009Z,11.57
2022-11-12T16:28:54.544Z,11.51
2022-11-12T16:31:21.884Z,11.48
2022-11-12T16:33:48.585Z,11.50
2022-11-12T16:36:22.015Z,11.48
2022-11-12T16:38:54.847Z,11.48
2022-11-12T16:41:23.389Z,11.48
2022-11-12T16:43:55.309Z,11.49
2022-11-12T16:46:32.769Z,11.46
2022-11-12T16:48:59.461Z,11.44
2022-11-12T16:51:26.269Z,11.42
2022-11-12T16:53:52.720Z,11.42
2022-11-12T16:56:21.063Z,11.42
2022-11-12T16:58:48.591Z,11.43
2022-11-12T17:01:24.077Z,11.38
2022-11-12T17:03:55.602Z,11.32
2022-11-12T17:06:24.977Z,11.30
2022-11-12T17:08:55.243Z,11.28
2022-11-12T17:11:23.913Z,11.27
2022-11-12T17:13:50.873Z,11.22
2022-11-12T17:16:17.586Z,11.20
2022-11-12T17:18:44.110Z,11.22
2022-11-12T17:21:15.862Z,11.23
2022-11-12T17:23:45.664Z,11.19
2022-11-12T17:26:24.908Z,11.16
2022-11-12T17:28:55.702Z,11.15
2022-11-12T17:31:24.492Z,11.15
2022-11-12T17:33:52.472Z,11.20
2022-11-12T17:36:22.559Z,11.26
2022-11-12T17:38:53.127Z,11.22
2022-11-12T17:41:20.907Z,11.22
2022-11-12T17:43:47.358Z,11.18
2022-11-12T17:46:14.877Z,11.19
2022-11-12T17:48:41.540Z,11.19
2022-11-12T17:51:15.087Z,11.17
2022-11-12T17:53:41.966Z,11.10
2022-11-12T17:56:19.706Z,11.09
2022-11-12T17:58:47.357Z,11.05
2022-11-12T18:01:18.458Z,11.01
2022-11-12T18:03:47.927Z,11.02
2022-11-12T18:06:17.163Z,11.04
2022-11-12T18:08:44.125Z,11.03
2022-11-12T18:11:12.544Z,10.98
2022-11-12T18:13:39.167Z,10.93
2022-11-12T18:16:17.856Z,10.86
2022-11-12T18:18:45.002Z,10.93
2022-11-12T18:21:12.294Z,10.86
2022-11-12T18:23:47.766Z,10.81
2022-11-12T18:26:15.916Z,10.78
2022-11-12T18:28:42.568Z,10.81
2022-11-12T18:31:11.642Z,10.76
2022-11-12T18:33:38.737Z,10.68
2022-11-12T18:36:08.438Z,10.69
2022-11-12T18:38:35.986Z,10.70
2022-11-12T18:41:04.786Z,10.71
2022-11-12T18:43:31.811Z,10.68
2022-11-12T18:46:00.197Z,10.63
2022-11-12T18:48:31.845Z,10.64
2022-11-12T18:51:03.671Z,10.64
2022-11-12T18:53:30.459Z,10.61
2022-11-12T18:56:00.512Z,10.61
2022-11-12T18:58:33.678Z,10.58
2022-11-12T19:01:10.316Z,10.53
2022-11-12T19:03:37.086Z,10.49
2022-11-12T19:06:05.632Z,10.43
2022-11-12T19:08:32.717Z,10.33
2022-11-12T19:11:00.737Z,10.23
2022-11-12T19:13:28.383Z,10.23
2022-11-12T19:15:55.971Z,10.24
2022-11-12T19:18:22.391Z,10.26
2022-11-12T19:20:49.091Z,10.23
2022-11-12T19:23:15.659Z,10.15
2022-11-12T19:25:42.154Z,10.05
2022-11-12T19:28:08.577Z,10.03
2022-11-12T19:30:35.050Z,9.91
2022-11-12T19:33:01.585Z,9.79
2022-11-12T19:35:28.056Z,9.86
2022-11-12T19:37:54.456Z,9.95
2022-11-12T19:40:20.926Z,9.93
2022-11-12T19:42:48.029Z,9.90
2022-11-12T19:45:14.562Z,9.87
2022-11-12T19:47:41.055Z,9.91
2022-11-12T19:50:07.985Z,9.94
2022-11-12T19:52:34.388Z,9.97
2022-11-12T19:55:00.983Z,10.02
2022-11-12T19:57:29.004Z,9.95
2022-11-12T19:59:55.593Z,9.91
2022-11-12T20:02:22.069Z,9.90
2022-11-12T20:04:48.499Z,9.89
2022-11-12T20:07:15.096Z,9.92
2022-11-12T20:09:41.581Z,9.86
2022-11-12T20:12:08.357Z,9.86
2022-11-12T20:14:34.761Z,9.78
2022-11-12T20:17:01.200Z,9.61
2022-11-12T20:19:27.863Z,9.61
2022-11-12T20:21:54.338Z,9.53
2022-11-12T20:24:20.820Z,9.21
2022-11-12T20:26:47.262Z,9.14
2022-11-12T20:29:13.689Z,9.22
2022-11-12T20:31:41.865Z,9.21
2022-11-12T20:34:08.301Z,9.15
2022-11-12T20:36:34.728Z,9.14
2022-11-12T20:39:02.102Z,9.13
2022-11-12T20:41:28.642Z,9.04
2022-11-12T20:44:00.263Z,8.95
2022-11-12T20:46:27.492Z,8.87
2022-11-12T20:48:54.811Z,8.62
2022-11-12T20:51:28.475Z,8.64
2022-11-12T20:54:00.079Z,8.73
2022-11-12T20:56:28.545Z,8.84
2022-11-12T20:58:55.018Z,8.91
2022-11-12T21:01:23.320Z,8.92
2022-11-12T21:03:49.894Z,8.90
2022-11-12T21:06:19.309Z,8.91
2022-11-12T21:08:46.191Z,8.88
2022-11-12T21:11:18.576Z,8.88
2022-11-12T21:13:45.267Z,8.98
2022-11-12T21:16:13.493Z,9.06
2022-11-12T21:18:40.571Z,9.07
2022-11-12T21:21:09.915Z,9.07
2022-11-12T21:23:40.218Z,9.03
2022-11-12T21:26:09.891Z,9.09
2022-11-12T21:28:38.171Z,9.11
2022-11-12T21:31:07.049Z,9.13
2022-11-12T21:33:33.973Z,9.19
2022-11-12T21:36:01.379Z,9.15
2022-11-12T21:38:28.701Z,9.20
2022-11-12T21:41:20.213Z,9.27
2022-11-12T21:43:47.399Z,9.29
2022-11-12T21:46:22.211Z,9.26
2022-11-12T21:48:54.890Z,9.25
2022-11-12T21:51:32.327Z,9.29
2022-11-12T21:54:04.008Z,9.37
2022-11-12T21:56:31.176Z,9.44
2022-11-12T21:59:00.228Z,9.43
2022-11-12T22:01:32.065Z,9.39
2022-11-12T22:03:59.727Z,9.32
2022-11-12T22:06:29.158Z,9.30
2022-11-12T22:08:57.396Z,9.28
2022-11-12T22:11:25.108Z,9.28
2022-11-12T22:13:51.560Z,9.30
2022-11-12T22:16:23.296Z,9.29
2022-11-12T22:18:51.721Z,9.25
2022-11-12T22:21:21.565Z,9.25
2022-11-12T22:23:48.562Z,9.30
2022-11-12T22:26:17.371Z,9.30
2022-11-12T22:28:45.664Z,9.32
2022-11-12T22:31:15.773Z,9.38
2022-11-12T22:33:42.751Z,9.41
2022-11-12T22:36:12.302Z,9.46
2022-11-12T22:38:40.968Z,9.48
2022-11-12T22:41:09.895Z,9.49
2022-11-12T22:43:39.233Z,9.51
2022-11-12T22:46:16.645Z,9.46
2022-11-12T22:48:43.397Z,9.47
2022-11-12T22:51:14.505Z,9.45
2022-11-12T22:53:41.255Z,9.42
2022-11-12T22:56:09.843Z,9.39
2022-11-12T22:58:37.854Z,9.42
2022-11-12T23:01:09.641Z,9.45
2022-11-12T23:03:37.746Z,9.51
2022-11-12T23:06:05.987Z,9.53
2022-11-12T23:08:35.791Z,9.49
2022-11-12T23:11:08.025Z,9.47
2022-11-12T23:13:35.101Z,9.51
2022-11-12T23:16:02.226Z,9.50
2022-11-12T23:18:28.943Z,9.49
2022-11-12T23:21:01.959Z,9.48
2022-11-12T23:23:28.420Z,9.53
2022-11-12T23:25:54.850Z,9.48
2022-11-12T23:28:21.272Z,9.43
2022-11-12T23:30:50.860Z,9.45
2022-11-12T23:33:17.354Z,9.46
2022-11-12T23:35:43.811Z,9.51
2022-11-12T23:38:10.254Z,9.52
2022-11-12T23:40:36.743Z,9.56
2022-11-12T23:43:03.186Z,9.57
2022-11-12T23:45:29.683Z,9.50
2022-11-12T23:47:57.129Z,9.47
2022-11-12T23:50:23.582Z,9.46
2022-11-12T23:52:50.012Z,9.43
2022-11-12T23:55:16.562Z,9.39
2022-11-12T23:57:43.026Z,9.43
